Time;durP1;ratioP1;P1;durP2;ratioP2;P2;SDS_P1;SDS_P2;PMS_P1;PMS_P2;Temp;Humidity;BMP_temperature;BMP_pressure;BME280_temperature;BME280_humidity;BME280_pressure;Samples;Min_cycle;Max_cycle;Signal;HPM_P1;HPM_P2
2023/08/28 00:02:19;;;;;;;9.40;7.32;;;19.50;84.50;;;;;;5062232;28;20044;-81
2023/08/28 00:04:45;;;;;;;11.02;7.45;;;19.50;84.50;;;;;;5060686;28;20044;-80
2023/08/28 00:07:12;;;;;;;7.70;6.82;;;19.50;84.20;;;;;;5062414;28;20383;-80
2023/08/28 00:09:38;;;;;;;11.50;8.10;;;19.50;84.40;;;;;;5061543;28;20446;-81
2023/08/28 00:12:04;;;;;;;9.90;7.63;;;19.50;84.60;;;;;;5061320;28;20093;-82
2023/08/28 00:14:31;;;;;;;12.38;7.38;;;19.50;84.50;;;;;;5061443;28;20090;-82
2023/08/28 00:16:57;;;;;;;10.25;7.47;;;19.50;84.50;;;;;;5063021;28;20036;-83
2023/08/28 00:19:23;;;;;;;8.77;7.15;;;19.50;84.30;;;;;;5040872;28;20033;-83
2023/08/28 00:21:49;;;;;;;9.35;6.80;;;19.50;83.80;;;;;;5030331;28;20082;-84
2023/08/28 00:24:15;;;;;;;9.02;7.50;;;19.50;83.10;;;;;;5040687;28;20083;-84
2023/08/28 00:26:41;;;;;;;8.93;6.40;;;19.40;82.70;;;;;;5025142;28;20128;-83
2023/08/28 00:29:07;;;;;;;11.93;9.07;;;19.40;82.80;;;;;;5027746;28;20128;-82
2023/08/28 00:31:33;;;;;;;13.20;11.80;;;19.50;83.00;;;;;;5031757;28;20040;-82
2023/08/28 00:34:00;;;;;;;9.30;8.18;;;19.40;83.00;;;;;;5044996;28;20054;-81
2023/08/28 00:36:25;;;;;;;10.18;7.28;;;19.40;83.00;;;;;;5039986;28;20036;-80
2023/08/28 00:38:51;;;;;;;8.77;7.00;;;19.40;83.00;;;;;;5055602;28;20028;-80
2023/08/28 00:41:17;;;;;;;8.40;6.88;;;19.40;83.10;;;;;;5061370;28;20032;-81
2023/08/28 00:43:43;;;;;;;9.35;7.38;;;19.40;83.10;;;;;;5048710;28;20048;-81
2023/08/28 00:46:10;;;;;;;7.70;6.63;;;19.40;83.00;;;;;;5030645;28;20036;-81
2023/08/28 00:48:36;;;;;;;8.95;7.00;;;19.30;82.90;;;;;;5062767;28;20053;-82
2023/08/28 00:51:03;;;;;;;7.95;6.32;;;19.40;83.00;;;;;;5040306;28;20082;-83
2023/08/28 00:53:30;;;;;;;8.70;6.30;;;19.30;83.00;;;;;;5014768;28;20420;-83
2023/08/28 00:55:56;;;;;;;10.15;7.20;;;19.30;82.70;;;;;;5028155;28;20029;-84
2023/08/28 00:58:22;;;;;;;7.13;6.35;;;19.30;82.70;;;;;;5014637;28;20029;-84
2023/08/28 01:00:48;;;;;;;7.13;6.30;;;19.30;82.80;;;;;;5059651;28;20036;-84
2023/08/28 01:03:14;;;;;;;8.25;5.95;;;19.30;82.80;;;;;;5041905;28;22791;-81
2023/08/28 01:05:53;;;;;;;8.13;6.60;;;19.30;83.00;;;;;;5031438;28;20086;-82
2023/08/28 01:08:31;;;;;;;7.30;6.13;;;19.30;82.90;;;;;;5040226;28;20674;-82
2023/08/28 01:11:04;;;;;;;9.15;6.85;;;19.30;83.00;;;;;;5043610;28;20029;-82
2023/08/28 01:13:47;;;;;;;9.10;7.05;;;19.30;82.90;;;;;;5031191;28;20052;-81
2023/08/28 01:16:14;;;;;;;7.40;6.53;;;19.20;82.90;;;;;;5060959;28;20032;-82
2023/08/28 01:18:42;;;;;;;9.20;6.72;;;19.20;82.90;;;;;;5030727;28;20116;-81
2023/08/28 01:21:09;;;;;;;8.50;6.57;;;19.20;82.80;;;;;;5038669;28;20465;-81
2023/08/28 01:24:08;;;;;;;9.05;6.57;;;19.20;82.80;;;;;;5046924;28;20115;-80
2023/08/28 01:26:34;;;;;;;9.13;6.80;;;19.20;83.00;;;;;;5023974;28;20078;-83
2023/08/28 01:29:00;;;;;;;8.88;6.88;;;19.20;82.90;;;;;;5028928;28;20056;-83
2023/08/28 01:31:25;;;;;;;8.70;6.63;;;19.20;82.90;;;;;;5038570;28;20115;-83
2023/08/28 01:33:52;;;;;;;9.85;7.10;;;19.10;83.00;;;;;;5059868;28;20124;-84
2023/08/28 01:36:25;;;;;;;8.52;7.47;;;19.10;82.90;;;;;;5030469;28;20067;-84
2023/08/28 01:39:04;;;;;;;11.07;6.82;;;19.20;82.80;;;;;;5059855;28;20991;-84
2023/08/28 01:41:32;;;;;;;8.45;6.68;;;19.20;82.80;;;;;;5042656;28;20165;-84
2023/08/28 01:44:01;;;;;;;7.93;6.65;;;19.10;82.70;;;;;;5047024;28;20119;-83
2023/08/28 01:46:33;;;;;;;9.63;6.65;;;19.10;82.90;;;;;;5060506;28;20441;-83
2023/08/28 01:48:59;;;;;;;7.90;6.78;;;19.10;83.00;;;;;;5045490;28;20033;-83
2023/08/28 01:51:25;;;;;;;11.60;6.40;;;19.10;82.90;;;;;;5040853;28;20036;-84
2023/08/28 01:53:53;;;;;;;8.68;6.78;;;19.10;82.80;;;;;;5059903;28;20032;-84
2023/08/28 01:56:21;;;;;;;7.68;6.63;;;19.10;82.60;;;;;;5046373;28;20040;-84
2023/08/28 01:58:58;;;;;;;8.93;6.75;;;19.10;82.60;;;;;;5029768;28;20040;-84
2023/08/28 02:01:25;;;;;;;8.68;6.85;;;19.00;82.70;;;;;;5041625;28;20041;-84
2023/08/28 02:03:52;;;;;;;9.98;6.50;;;19.00;82.60;;;;;;5044726;28;20041;-83
2023/08/28 02:06:19;;;;;;;7.75;6.50;;;19.00;82.40;;;;;;5041687;28;20037;-82
2023/08/28 02:08:45;;;;;;;8.55;6.18;;;19.00;82.30;;;;;;5041558;28;20036;-84
2023/08/28 02:11:12;;;;;;;8.77;6.47;;;19.00;82.20;;;;;;5016153;28;20040;-82
2023/08/28 02:13:38;;;;;;;8.60;6.40;;;19.00;82.30;;;;;;5040832;28;20033;-82
2023/08/28 02:16:04;;;;;;;7.82;6.43;;;19.00;82.40;;;;;;5038974;28;20052;-82
2023/08/28 02:18:30;;;;;;;8.98;6.75;;;19.00;82.30;;;;;;5030241;28;20047;-82
2023/08/28 02:20:56;;;;;;;9.05;6.82;;;18.90;82.20;;;;;;5042532;28;20028;-81
2023/08/28 02:23:26;;;;;;;7.85;6.38;;;18.90;82.30;;;;;;5064263;28;20109;-82
2023/08/28 02:25:52;;;;;;;12.50;7.20;;;18.90;82.20;;;;;;5043545;28;20496;-82
2023/08/28 02:28:18;;;;;;;8.90;6.50;;;18.90;82.30;;;;;;5044214;28;20044;-82
2023/08/28 02:30:47;;;;;;;7.35;6.55;;;18.90;82.10;;;;;;5065992;28;20040;-82
2023/08/28 02:33:14;;;;;;;10.32;6.45;;;18.90;82.20;;;;;;5031085;28;20426;-82
2023/08/28 02:35:42;;;;;;;7.57;6.78;;;18.80;82.20;;;;;;5029910;28;20028;-82
2023/08/28 02:38:10;;;;;;;8.18;6.35;;;18.80;82.20;;;;;;5045583;28;20033;-81
2023/08/28 02:40:37;;;;;;;7.18;6.22;;;18.80;82.30;;;;;;5044852;28;20024;-82
2023/08/28 02:43:07;;;;;;;8.82;6.93;;;18.80;82.40;;;;;;5025484;28;20542;-80
2023/08/28 02:45:38;;;;;;;8.35;6.30;;;18.80;82.40;;;;;;5047996;28;20041;-79
2023/08/28 02:48:05;;;;;;;10.05;6.53;;;18.80;82.60;;;;;;5030350;28;20464;-76
2023/08/28 02:50:32;;;;;;;7.63;6.35;;;18.70;82.50;;;;;;5046990;28;20024;-76
2023/08/28 02:52:58;;;;;;;8.88;6.95;;;18.80;82.20;;;;;;5046102;28;20039;-76
2023/08/28 02:55:24;;;;;;;9.30;6.47;;;18.80;82.30;;;;;;5041796;28;20040;-76
2023/08/28 02:57:50;;;;;;;9.50;6.30;;;18.80;82.30;;;;;;5059637;28;20040;-75
2023/08/28 03:00:18;;;;;;;11.43;6.10;;;18.70;82.20;;;;;;5041962;28;20123;-76
2023/08/28 03:02:45;;;;;;;8.65;6.60;;;18.80;82.10;;;;;;5046211;28;20028;-77
2023/08/28 03:05:12;;;;;;;7.65;6.30;;;18.80;82.00;;;;;;5012527;28;20040;-76
2023/08/28 03:07:38;;;;;;;8.65;6.50;;;18.80;82.00;;;;;;5041296;28;20045;-76
2023/08/28 03:10:05;;;;;;;11.77;7.47;;;18.80;81.90;;;;;;5043945;28;20139;-77
2023/08/28 03:12:31;;;;;;;10.32;6.65;;;18.80;81.80;;;;;;5043899;28;20037;-75
2023/08/28 03:14:57;;;;;;;8.85;6.68;;;18.70;81.80;;;;;;5042501;28;20036;-76
2023/08/28 03:17:23;;;;;;;9.25;6.80;;;18.80;81.70;;;;;;5062030;28;20032;-76
2023/08/28 03:19:49;;;;;;;9.98;6.95;;;18.80;81.50;;;;;;5031273;28;20036;-76
2023/08/28 03:22:15;;;;;;;10.40;7.15;;;18.80;81.40;;;;;;5027503;28;20721;-76
2023/08/28 03:24:40;;;;;;;8.90;7.00;;;18.80;81.30;;;;;;5041812;28;20051;-76
2023/08/28 03:27:07;;;;;;;8.57;7.00;;;18.80;81.10;;;;;;5044406;28;20046;-76
2023/08/28 03:29:33;;;;;;;10.68;6.90;;;18.80;81.00;;;;;;5061348;28;20075;-76
2023/08/28 03:31:58;;;;;;;9.95;7.30;;;18.90;81.00;;;;;;5042061;28;20032;-76
2023/08/28 03:34:25;;;;;;;9.70;7.20;;;18.80;81.00;;;;;;5038588;28;20037;-77
2023/08/28 03:36:51;;;;;;;8.60;7.00;;;18.90;80.90;;;;;;5044158;28;20089;-77
2023/08/28 03:39:17;;;;;;;8.98;7.47;;;18.90;80.90;;;;;;5044653;28;20251;-76
2023/08/28 03:41:43;;;;;;;11.85;7.60;;;18.90;80.70;;;;;;5058460;28;20032;-76
2023/08/28 03:44:09;;;;;;;10.07;7.03;;;18.90;80.60;;;;;;5042601;28;20039;-76
2023/08/28 03:46:35;;;;;;;12.10;7.40;;;18.90;80.30;;;;;;5045848;28;20032;-76
2023/08/28 03:49:03;;;;;;;8.98;7.25;;;19.00;80.30;;;;;;5042737;28;20097;-76
2023/08/28 03:51:29;;;;;;;9.05;7.15;;;19.00;80.30;;;;;;5043992;28;20550;-76
2023/08/28 03:53:55;;;;;;;8.48;6.68;;;19.00;80.80;;;;;;5045254;28;20123;-76
2023/08/28 03:56:22;;;;;;;9.60;7.63;;;19.00;80.80;;;;;;5041493;28;20072;-76
2023/08/28 03:58:48;;;;;;;10.93;6.90;;;19.00;80.80;;;;;;5039690;28;20049;-76
2023/08/28 04:01:14;;;;;;;10.88;6.82;;;19.00;81.30;;;;;;5060645;28;20040;-75
2023/08/28 04:03:40;;;;;;;10.13;7.13;;;19.00;81.20;;;;;;5039936;28;20086;-77
2023/08/28 04:06:08;;;;;;;8.20;6.63;;;19.00;81.30;;;;;;5061073;28;20549;-78
2023/08/28 04:08:34;;;;;;;9.27;7.10;;;19.00;81.60;;;;;;5030672;28;20040;-76
2023/08/28 04:11:02;;;;;;;11.02;7.50;;;19.00;81.60;;;;;;5040059;28;20507;-77
2023/08/28 04:13:28;;;;;;;10.20;7.07;;;19.00;81.50;;;;;;5039180;28;20534;-76
2023/08/28 04:15:54;;;;;;;9.38;7.40;;;19.10;81.60;;;;;;5041586;28;20036;-76
2023/08/28 04:18:21;;;;;;;10.32;6.95;;;19.10;81.60;;;;;;5028780;28;20036;-77
2023/08/28 04:20:47;;;;;;;9.15;7.43;;;19.10;81.70;;;;;;5043521;28;20020;-77
2023/08/28 04:23:15;;;;;;;8.65;7.03;;;19.10;81.90;;;;;;5058640;28;20040;-76
2023/08/28 04:25:41;;;;;;;7.80;6.95;;;19.10;81.90;;;;;;5040955;28;20536;-76
2023/08/28 04:28:07;;;;;;;9.25;7.18;;;19.10;81.70;;;;;;5039842;28;20033;-77
2023/08/28 04:30:33;;;;;;;10.35;7.32;;;19.20;81.80;;;;;;5040813;28;20040;-77
2023/08/28 04:32:59;;;;;;;8.80;7.22;;;19.20;82.00;;;;;;5043918;28;20553;-76
2023/08/28 04:35:24;;;;;;;9.52;7.55;;;19.20;82.00;;;;;;5030887;28;20032;-76
2023/08/28 04:37:50;;;;;;;10.38;7.57;;;19.30;82.00;;;;;;5048202;28;20033;-76
2023/08/28 04:40:16;;;;;;;7.88;7.07;;;19.30;82.00;;;;;;5060232;28;20090;-76
2023/08/28 04:42:42;;;;;;;11.27;7.22;;;19.50;82.00;;;;;;5042834;28;20029;-77
2023/08/28 04:45:08;;;;;;;8.52;6.72;;;20.00;81.00;;;;;;5045772;28;20533;-77
2023/08/28 04:47:34;;;;;;;9.38;6.20;;;20.60;79.80;;;;;;5046559;28;20025;-77
2023/08/28 04:50:00;;;;;;;9.70;6.70;;;21.00;78.80;;;;;;5040613;28;20500;-77
2023/08/28 04:52:26;;;;;;;8.85;6.22;;;21.40;78.00;;;;;;5046745;28;20036;-77
2023/08/28 04:54:52;;;;;;;8.50;6.47;;;21.80;77.50;;;;;;5025997;28;20036;-77
2023/08/28 04:57:18;;;;;;;8.55;5.93;;;22.10;76.70;;;;;;5040580;28;20033;-78
2023/08/28 04:59:45;;;;;;;8.88;6.03;;;22.30;76.00;;;;;;5039252;28;20348;-78
2023/08/28 05:02:11;;;;;;;6.70;5.88;;;22.50;75.40;;;;;;5046288;28;20805;-78
2023/08/28 05:04:37;;;;;;;6.97;5.82;;;22.50;75.40;;;;;;5041012;28;20048;-78
2023/08/28 05:07:05;;;;;;;7.93;5.60;;;22.40;75.80;;;;;;5038853;28;20025;-78
2023/08/28 05:09:31;;;;;;;6.00;5.40;;;22.40;75.60;;;;;;5042220;28;20540;-78
2023/08/28 05:11:57;;;;;;;7.72;5.60;;;22.40;75.70;;;;;;5039669;28;20021;-78
2023/08/28 05:14:26;;;;;;;5.82;5.20;;;22.50;75.70;;;;;;5059105;28;20032;-78
2023/08/28 05:16:52;;;;;;;7.20;5.50;;;22.50;75.80;;;;;;5059302;28;20531;-78
2023/08/28 05:19:18;;;;;;;5.70;4.80;;;22.50;75.80;;;;;;5058254;28;20067;-78
2023/08/28 05:21:44;;;;;;;5.55;4.97;;;22.60;75.70;;;;;;5060217;28;20040;-77
2023/08/28 05:24:10;;;;;;;4.88;4.47;;;22.70;75.40;;;;;;5059018;28;20056;-78
2023/08/28 05:26:36;;;;;;;5.90;4.30;;;22.80;74.90;;;;;;5043371;28;20491;-77
2023/08/28 05:29:02;;;;;;;5.43;4.68;;;22.90;74.30;;;;;;5043937;28;20037;-78
2023/08/28 05:31:28;;;;;;;8.00;4.90;;;23.00;73.40;;;;;;5060843;28;20028;-77
2023/08/28 05:33:54;;;;;;;6.00;4.50;;;23.10;72.80;;;;;;5057936;28;20478;-77
2023/08/28 05:36:20;;;;;;;5.95;4.30;;;23.30;72.50;;;;;;5037960;28;20068;-78
2023/08/28 05:38:47;;;;;;;4.07;3.67;;;23.40;72.60;;;;;;5039408;28;20028;-77
2023/08/28 05:41:16;;;;;;;4.88;3.80;;;23.40;71.90;;;;;;5024411;28;20147;-77
2023/08/28 05:43:45;;;;;;;4.45;3.67;;;23.60;70.90;;;;;;5021501;28;20037;-78
2023/08/28 05:46:11;;;;;;;5.38;3.70;;;23.70;70.00;;;;;;5029820;28;21144;-79
2023/08/28 05:48:37;;;;;;;3.85;3.55;;;23.80;69.60;;;;;;5028121;28;20294;-79
2023/08/28 05:51:03;;;;;;;4.05;3.55;;;23.90;69.30;;;;;;5058427;28;20075;-78
2023/08/28 05:53:29;;;;;;;4.10;3.10;;;24.00;68.00;;;;;;5046521;28;20032;-78
2023/08/28 05:55:56;;;;;;;3.65;3.35;;;24.10;67.50;;;;;;5029023;28;20036;-77
2023/08/28 05:58:23;;;;;;;3.47;3.15;;;24.10;67.30;;;;;;5028302;28;20078;-77
2023/08/28 06:00:49;;;;;;;3.50;3.03;;;24.20;66.50;;;;;;5045608;28;20029;-78
2023/08/28 06:03:15;;;;;;;3.47;2.83;;;24.30;65.90;;;;;;5041940;28;20135;-77
2023/08/28 06:05:43;;;;;;;3.28;2.97;;;24.40;65.70;;;;;;5043939;28;20032;-77
2023/08/28 06:08:09;;;;;;;3.08;2.80;;;24.50;65.50;;;;;;5062140;28;20033;-78
2023/08/28 06:10:40;;;;;;;4.15;2.83;;;24.60;65.10;;;;;;5063421;28;20086;-78
2023/08/28 06:13:06;;;;;;;3.05;2.65;;;24.70;64.80;;;;;;5045135;28;20523;-79
2023/08/28 06:15:33;;;;;;;2.60;2.35;;;24.70;64.50;;;;;;5031554;28;20079;-78
2023/08/28 06:17:59;;;;;;;2.70;2.50;;;24.90;64.30;;;;;;5030150;28;20033;-78
2023/08/28 06:20:25;;;;;;;3.08;2.70;;;25.00;63.80;;;;;;5043320;28;20020;-77
2023/08/28 06:22:51;;;;;;;3.70;2.75;;;25.00;63.20;;;;;;5033899;28;20534;-78
2023/08/28 06:25:17;;;;;;;4.88;2.75;;;25.10;63.00;;;;;;5061560;28;20044;-78
2023/08/28 06:27:44;;;;;;;5.18;2.38;;;25.20;62.90;;;;;;5040072;28;20043;-78
2023/08/28 06:30:11;;;;;;;2.97;2.47;;;25.20;62.90;;;;;;5066417;28;20033;-79
2023/08/28 06:32:37;;;;;;;2.47;2.25;;;25.30;62.80;;;;;;5018078;28;20067;-80
2023/08/28 06:35:04;;;;;;;3.95;2.22;;;25.30;62.80;;;;;;5044105;28;20044;-80
2023/08/28 06:37:30;;;;;;;2.55;2.35;;;25.40;63.10;;;;;;5047844;28;20584;-78
2023/08/28 06:39:57;;;;;;;4.85;2.28;;;25.50;62.70;;;;;;5048363;28;20037;-77
2023/08/28 06:42:23;;;;;;;3.20;2.40;;;25.50;62.10;;;;;;5063671;28;20036;-78
2023/08/28 06:44:49;;;;;;;4.93;2.35;;;25.60;62.20;;;;;;5061742;28;20029;-80
2023/08/28 06:47:14;;;;;;;2.47;2.28;;;25.60;61.90;;;;;;5062860;28;20102;-83
2023/08/28 06:49:42;;;;;;;5.60;2.45;;;25.70;61.10;;;;;;5042328;28;20032;-78
2023/08/28 06:52:09;;;;;;;2.53;2.33;;;25.70;58.90;;;;;;5061788;28;20112;-82
2023/08/28 06:54:35;;;;;;;3.53;2.55;;;25.60;54.70;;;;;;5032024;28;20090;-78
2023/08/28 06:57:02;;;;;;;2.90;2.70;;;25.50;54.20;;;;;;5063413;28;20074;-78
2023/08/28 06:59:28;;;;;;;3.53;2.78;;;25.40;54.80;;;;;;5062040;28;20032;-80
2023/08/28 07:01:53;;;;;;;3.10;2.35;;;25.50;53.80;;;;;;5042321;28;20059;-78
2023/08/28 07:04:19;;;;;;;5.07;2.90;;;25.40;53.70;;;;;;5063824;28;20044;-78
2023/08/28 07:06:45;;;;;;;4.10;2.95;;;25.30;54.80;;;;;;5061061;28;20029;-78
2023/08/28 07:09:11;;;;;;;3.08;2.40;;;25.20;55.40;;;;;;5060799;28;20037;-77
2023/08/28 07:11:37;;;;;;;2.22;2.10;;;25.20;54.40;;;;;;5044692;28;20055;-80
2023/08/28 07:14:06;;;;;;;3.33;2.70;;;25.20;54.10;;;;;;5061936;28;20048;-78
2023/08/28 07:16:32;;;;;;;2.60;2.15;;;25.20;54.00;;;;;;5062276;28;20045;-77
2023/08/28 07:18:58;;;;;;;3.38;2.10;;;25.10;53.90;;;;;;5062122;28;20064;-77
2023/08/28 07:21:23;;;;;;;3.58;2.50;;;25.00;54.30;;;;;;5062209;28;20094;-79
2023/08/28 07:23:51;;;;;;;2.63;2.42;;;25.00;53.70;;;;;;5061808;28;20036;-77
2023/08/28 07:26:17;;;;;;;2.25;2.05;;;24.90;54.00;;;;;;5061679;28;20040;-78
2023/08/28 07:28:44;;;;;;;2.83;2.50;;;24.90;54.20;;;;;;5061892;28;20028;-77
2023/08/28 07:31:10;;;;;;;4.00;2.35;;;24.80;54.40;;;;;;5061140;28;20037;-77
2023/08/28 07:33:37;;;;;;;2.80;2.60;;;24.80;54.00;;;;;;5044987;28;20528;-74
2023/08/28 07:36:03;;;;;;;2.85;2.63;;;24.80;54.40;;;;;;5061357;28;20033;-81
2023/08/28 07:38:29;;;;;;;3.92;2.80;;;24.70;54.00;;;;;;5064051;28;20028;-80
2023/08/28 07:40:55;;;;;;;3.55;2.90;;;24.50;55.30;;;;;;5062672;28;20727;-75
2023/08/28 07:43:21;;;;;;;4.85;2.63;;;24.50;55.00;;;;;;5060744;28;20036;-79
2023/08/28 07:45:48;;;;;;;3.25;2.38;;;24.40;55.90;;;;;;5061344;28;20531;-80
2023/08/28 07:48:20;;;;;;;2.75;2.50;;;24.40;54.50;;;;;;5060404;28;20314;-79
2023/08/28 07:50:46;;;;;;;3.35;3.00;;;24.40;55.00;;;;;;5062550;28;20033;-79
2023/08/28 07:53:13;;;;;;;2.75;2.40;;;24.40;54.80;;;;;;5062627;28;20046;-77
2023/08/28 07:55:39;;;;;;;2.13;2.00;;;24.30;56.00;;;;;;5061735;28;20040;-76
2023/08/28 07:58:06;;;;;;;2.97;2.60;;;24.30;54.80;;;;;;5025648;28;20033;-77
2023/08/28 08:00:34;;;;;;;4.75;2.70;;;24.30;57.50;;;;;;5061167;28;20040;-76
2023/08/28 08:03:03;;;;;;;2.75;2.55;;;24.40;57.40;;;;;;5062539;28;20035;-76
2023/08/28 08:05:30;;;;;;;3.53;2.80;;;24.40;56.50;;;;;;5059242;28;20407;-76
2023/08/28 08:07:57;;;;;;;3.13;2.45;;;24.30;55.90;;;;;;5022749;28;20140;-76
2023/08/28 08:10:23;;;;;;;4.50;2.60;;;24.20;55.70;;;;;;5057504;28;20033;-75
2023/08/28 08:12:49;;;;;;;3.13;2.60;;;24.20;55.90;;;;;;5057817;28;20028;-75
2023/08/28 08:15:15;;;;;;;2.70;2.50;;;24.20;56.10;;;;;;5039428;28;20044;-75
2023/08/28 08:17:41;;;;;;;3.05;2.83;;;24.20;56.90;;;;;;5037446;28;20036;-76
2023/08/28 08:20:10;;;;;;;2.80;2.55;;;24.20;55.30;;;;;;5057201;28;20047;-75
2023/08/28 08:22:40;;;;;;;3.22;2.95;;;24.10;55.80;;;;;;5058120;28;20028;-75
2023/08/28 08:25:07;;;;;;;3.20;2.90;;;24.10;55.20;;;;;;5023238;28;20055;-76
2023/08/28 08:27:34;;;;;;;3.15;2.80;;;24.10;55.20;;;;;;5058331;28;20047;-76
2023/08/28 08:30:00;;;;;;;2.88;2.67;;;24.10;55.50;;;;;;5058431;28;20162;-76
2023/08/28 08:32:26;;;;;;;2.67;2.47;;;24.10;55.40;;;;;;5037598;28;20032;-76
2023/08/28 08:34:52;;;;;;;3.60;3.30;;;24.00;55.60;;;;;;5058510;28;20033;-76
2023/08/28 08:37:18;;;;;;;3.33;3.03;;;24.00;55.70;;;;;;5060719;28;20032;-75
2023/08/28 08:39:44;;;;;;;4.32;2.90;;;24.00;55.80;;;;;;5057060;28;20494;-75
2023/08/28 08:42:11;;;;;;;3.85;3.05;;;23.90;55.90;;;;;;5040667;28;20037;-76
2023/08/28 08:44:39;;;;;;;6.45;3.55;;;23.90;55.30;;;;;;5055605;28;20372;-75
2023/08/28 08:47:05;;;;;;;4.03;3.20;;;23.90;55.70;;;;;;5041602;28;20035;-76
2023/08/28 08:49:32;;;;;;;6.45;3.00;;;23.80;56.40;;;;;;5059097;28;20658;-74
2023/08/28 08:52:04;;;;;;;3.03;2.83;;;23.80;56.10;;;;;;5059399;28;20032;-74
2023/08/28 08:54:36;;;;;;;3.88;2.97;;;23.70;56.90;;;;;;5056345;28;20028;-75
2023/08/28 08:57:13;;;;;;;2.90;2.70;;;23.70;56.70;;;;;;5056214;28;20028;-76
2023/08/28 08:59:40;;;;;;;3.35;3.05;;;23.60;56.30;;;;;;5058745;28;20064;-75
2023/08/28 09:02:08;;;;;;;4.85;3.75;;;23.60;57.20;;;;;;5036891;28;20024;-75
2023/08/28 09:04:35;;;;;;;3.42;3.13;;;23.40;56.00;;;;;;5054941;28;20043;-76
2023/08/28 09:07:03;;;;;;;3.55;3.25;;;23.40;56.80;;;;;;5057059;28;20057;-77
2023/08/28 09:09:30;;;;;;;4.60;3.28;;;23.40;56.00;;;;;;5041862;28;20120;-79
2023/08/28 09:11:56;;;;;;;3.35;3.05;;;23.40;56.60;;;;;;5057229;28;20570;-74
2023/08/28 09:14:23;;;;;;;4.35;3.13;;;23.30;57.20;;;;;;5058220;28;20029;-76
2023/08/28 09:16:49;;;;;;;4.47;4.07;;;23.20;56.80;;;;;;5055865;28;20060;-80
2023/08/28 09:19:16;;;;;;;4.05;3.38;;;23.20;56.80;;;;;;5055379;28;20060;-76
2023/08/28 09:21:47;;;;;;;3.45;3.15;;;23.10;57.00;;;;;;5055881;28;20037;-79
2023/08/28 09:24:13;;;;;;;3.50;3.20;;;23.10;57.70;;;;;;5056437;28;20565;-78
2023/08/28 09:26:39;;;;;;;3.85;3.45;;;23.10;58.50;;;;;;5038508;28;20383;-78
2023/08/28 09:29:08;;;;;;;4.07;3.60;;;23.20;58.10;;;;;;5057672;28;20040;-81
2023/08/28 09:31:46;;;;;;;4.38;3.60;;;23.10;58.40;;;;;;5036447;28;20035;-81
2023/08/28 09:34:13;;;;;;;3.90;3.47;;;23.10;58.50;;;;;;5055869;28;20064;-77
2023/08/28 09:36:42;;;;;;;4.57;3.22;;;23.10;59.80;;;;;;5056231;28;20033;-76
2023/08/28 09:39:09;;;;;;;4.53;4.13;;;23.00;59.50;;;;;;5058227;28;20505;-80
2023/08/28 09:41:48;;;;;;;4.05;3.38;;;23.00;59.10;;;;;;5033575;28;20132;-76
2023/08/28 09:44:16;;;;;;;7.47;3.50;;;23.00;59.50;;;;;;5036979;28;20041;-77
2023/08/28 09:46:48;;;;;;;5.78;3.80;;;23.00;60.80;;;;;;5055520;28;20032;-75
2023/08/28 09:49:15;;;;;;;5.95;4.00;;;23.00;59.40;;;;;;5053507;28;20069;-75
2023/08/28 09:51:43;;;;;;;3.80;3.40;;;22.90;59.10;;;;;;5057039;28;20124;-74
2023/08/28 09:54:11;;;;;;;5.38;3.42;;;22.90;60.50;;;;;;5056761;28;20154;-75
2023/08/28 09:56:39;;;;;;;7.43;3.45;;;22.90;61.20;;;;;;5057484;28;20047;-75
2023/08/28 09:59:06;;;;;;;7.53;3.70;;;22.90;61.00;;;;;;5056177;28;20056;-75
2023/08/28 10:01:34;;;;;;;7.57;3.53;;;22.80;60.70;;;;;;5056129;28;20182;-74
2023/08/28 10:04:04;;;;;;;4.70;3.65;;;22.80;60.90;;;;;;5034584;28;20036;-75
2023/08/28 10:06:33;;;;;;;5.47;3.90;;;22.80;60.80;;;;;;5056701;28;20037;-74
2023/08/28 10:09:00;;;;;;;4.57;3.55;;;22.70;60.70;;;;;;5039869;28;20090;-74
2023/08/28 10:11:35;;;;;;;4.85;4.40;;;22.70;60.30;;;;;;5057625;28;20025;-75
2023/08/28 10:14:04;;;;;;;4.65;4.07;;;22.70;61.20;;;;;;5040822;28;20461;-76
2023/08/28 10:16:40;;;;;;;6.05;3.83;;;22.70;61.30;;;;;;5058945;28;20405;-76
2023/08/28 10:19:10;;;;;;;5.15;4.03;;;22.60;61.00;;;;;;5057947;28;20534;-73
2023/08/28 10:21:36;;;;;;;5.00;4.00;;;22.60;60.50;;;;;;5057501;28;20094;-74
2023/08/28 10:24:05;;;;;;;5.63;4.80;;;22.60;59.50;;;;;;5055888;28;20051;-74
2023/08/28 10:26:32;;;;;;;9.13;4.13;;;22.50;60.00;;;;;;5057278;28;20024;-74
2023/08/28 10:28:59;;;;;;;5.78;4.05;;;22.50;61.10;;;;;;5056946;28;20043;-74
2023/08/28 10:31:26;;;;;;;4.30;3.88;;;22.50;60.50;;;;;;5064910;28;20215;-73
2023/08/28 10:33:53;;;;;;;4.30;3.90;;;22.50;59.90;;;;;;5063152;28;20032;-74
2023/08/28 10:36:20;;;;;;;5.18;4.10;;;22.50;59.90;;;;;;5056573;28;20090;-74
2023/08/28 10:38:47;;;;;;;4.00;3.60;;;22.40;59.00;;;;;;5060290;28;20043;-73
2023/08/28 10:41:14;;;;;;;5.55;4.60;;;22.40;59.80;;;;;;5064827;28;20035;-75
2023/08/28 10:43:40;;;;;;;5.65;4.70;;;22.40;60.30;;;;;;5060033;28;20480;-75
2023/08/28 10:46:07;;;;;;;4.85;4.35;;;22.40;60.20;;;;;;5041092;28;20426;-74
2023/08/28 10:48:38;;;;;;;5.38;4.72;;;22.30;60.60;;;;;;5064080;28;20037;-74
2023/08/28 10:51:04;;;;;;;6.63;4.85;;;22.40;60.50;;;;;;5063394;28;20131;-75
2023/08/28 10:53:33;;;;;;;5.85;4.82;;;22.40;60.20;;;;;;5048759;28;20154;-76
2023/08/28 10:56:02;;;;;;;5.78;5.18;;;22.40;60.70;;;;;;5059167;28;20038;-74
2023/08/28 10:58:37;;;;;;;5.05;4.55;;;22.40;59.90;;;;;;5063493;28;20442;-71
2023/08/28 11:01:15;;;;;;;6.00;4.55;;;22.40;60.00;;;;;;5039373;28;20067;-71
2023/08/28 11:03:58;;;;;;;8.27;4.65;;;22.30;59.10;;;;;;5039805;28;20471;-73
2023/08/28 11:06:44;;;;;;;5.18;4.68;;;22.30;59.40;;;;;;5059263;28;20094;-74
2023/08/28 11:09:28;;;;;;;5.97;4.40;;;22.20;59.60;;;;;;5060263;28;20515;-74
2023/08/28 11:12:00;;;;;;;6.70;4.38;;;22.30;60.10;;;;;;5062259;28;20119;-74
2023/08/28 11:14:32;;;;;;;5.03;4.43;;;22.30;59.20;;;;;;5058485;28;20052;-74
2023/08/28 11:17:15;;;;;;;5.00;4.40;;;22.30;60.00;;;;;;5043800;28;20649;-75
2023/08/28 11:19:56;;;;;;;6.53;4.68;;;22.30;59.10;;;;;;5060667;28;20045;-76
2023/08/28 11:22:33;;;;;;;6.30;4.88;;;22.40;60.10;;;;;;5058897;28;20041;-76
2023/08/28 11:25:01;;;;;;;5.28;4.70;;;22.40;59.80;;;;;;5057423;28;20051;-76
2023/08/28 11:27:40;;;;;;;4.93;4.43;;;22.40;59.30;;;;;;5057361;28;20035;-74
2023/08/28 11:30:08;;;;;;;7.32;4.60;;;22.40;58.90;;;;;;5058767;28;20174;-74
2023/08/28 11:32:35;;;;;;;4.88;4.47;;;22.30;58.40;;;;;;5045019;28;20964;-74
2023/08/28 11:35:05;;;;;;;5.50;4.95;;;22.30;58.80;;;;;;5060558;28;20059;-76
2023/08/28 11:37:42;;;;;;;5.55;4.75;;;22.30;59.00;;;;;;5058900;28;20396;-76
2023/08/28 11:40:09;;;;;;;6.93;5.43;;;22.30;58.50;;;;;;5041391;28;20032;-75
2023/08/28 11:42:37;;;;;;;6.07;4.82;;;22.30;58.90;;;;;;5058031;28;20029;-76
2023/08/28 11:45:04;;;;;;;7.07;5.18;;;22.30;59.00;;;;;;5057420;28;20404;-75
2023/08/28 11:47:32;;;;;;;7.40;4.70;;;22.20;58.20;;;;;;5041105;28;20582;-76
2023/08/28 11:49:59;;;;;;;6.65;4.88;;;22.20;58.30;;;;;;5059251;28;20044;-76
2023/08/28 11:52:25;;;;;;;5.20;4.70;;;22.20;58.10;;;;;;5057435;28;20779;-75
2023/08/28 11:54:52;;;;;;;6.40;4.60;;;22.10;57.50;;;;;;5058673;28;20032;-75
2023/08/28 11:57:19;;;;;;;6.25;4.72;;;22.10;58.00;;;;;;5057004;28;20411;-76
2023/08/28 11:59:47;;;;;;;5.20;4.70;;;22.10;58.70;;;;;;5060613;28;20062;-75
2023/08/28 12:02:14;;;;;;;5.00;4.55;;;22.20;58.40;;;;;;5043229;28;20247;-75
2023/08/28 12:04:40;;;;;;;6.65;4.90;;;22.20;58.20;;;;;;5057358;28;20043;-75
2023/08/28 12:07:26;;;;;;;5.32;4.82;;;22.20;58.60;;;;;;5020609;28;20060;-75
2023/08/28 12:09:54;;;;;;;5.32;4.80;;;22.20;58.60;;;;;;5056861;28;20193;-75
2023/08/28 12:12:21;;;;;;;5.20;4.70;;;22.20;58.60;;;;;;5057246;28;20110;-75
2023/08/28 12:14:49;;;;;;;5.28;4.65;;;22.20;59.10;;;;;;5058641;28;20025;-75
2023/08/28 12:17:16;;;;;;;7.43;4.65;;;22.20;57.50;;;;;;5058255;28;20206;-75
2023/08/28 12:19:43;;;;;;;5.30;4.70;;;22.10;57.60;;;;;;5040088;28;20040;-75
2023/08/28 12:22:11;;;;;;;5.57;4.70;;;22.10;58.20;;;;;;5057432;28;20631;-75
2023/08/28 12:24:49;;;;;;;5.38;4.70;;;22.10;57.90;;;;;;5037389;28;20803;-74
2023/08/28 12:27:27;;;;;;;4.97;4.45;;;22.10;57.30;;;;;;5045088;28;20521;-74
2023/08/28 12:29:54;;;;;;;6.15;4.53;;;22.10;57.20;;;;;;5058520;28;20032;-74
2023/08/28 12:32:20;;;;;;;5.25;4.75;;;22.10;57.30;;;;;;5039837;28;20037;-74
2023/08/28 12:34:47;;;;;;;5.20;4.70;;;22.00;57.80;;;;;;5043710;28;20029;-74
2023/08/28 12:37:14;;;;;;;5.72;4.35;;;22.00;58.10;;;;;;5058187;28;20313;-74
2023/08/28 12:39:48;;;;;;;9.07;4.68;;;22.00;58.10;;;;;;5038742;28;20064;-74
2023/08/28 12:42:14;;;;;;;5.68;4.50;;;22.00;58.20;;;;;;5056739;28;20522;-74
2023/08/28 12:44:43;;;;;;;5.10;4.60;;;22.10;58.10;;;;;;5055351;28;20035;-74
2023/08/28 12:47:17;;;;;;;4.85;4.45;;;22.10;58.50;;;;;;5059333;28;20032;-74
2023/08/28 12:49:43;;;;;;;5.05;4.50;;;22.10;58.30;;;;;;5058081;28;20095;-74